Time;durP1;ratioP1;P1;durP2;ratioP2;P2;SDS_P1;SDS_P2;PMS_P1;PMS_P2;Temp;Humidity;BMP_temperature;BMP_pressure;BME280_temperature;BME280_humidity;BME280_pressure;Samples;Min_cycle;Max_cycle;Signal;HPM_P1;HPM_P2
2024/04/20 00:00:28;;;;;;;495.40;86.82;;;11.70;53.80;;;;;;5372604;26;20003;-71
2024/04/20 00:02:59;;;;;;;499.27;88.18;;;11.70;53.80;;;;;;5375635;26;20025;-70
2024/04/20 00:05:29;;;;;;;479.80;83.00;;;11.70;53.80;;;;;;5375064;26;20022;-68
2024/04/20 00:08:03;;;;;;;505.38;105.03;;;11.80;53.80;;;;;;5363183;26;20004;-72
2024/04/20 00:10:34;;;;;;;474.75;84.40;;;11.70;53.70;;;;;;5380687;26;20011;-69
2024/04/20 00:13:05;;;;;;;535.72;94.53;;;11.80;53.80;;;;;;5396995;26;20069;-70
2024/04/20 00:15:35;;;;;;;501.65;83.78;;;11.70;53.70;;;;;;5367223;26;20019;-67
2024/04/20 00:18:06;;;;;;;490.50;80.88;;;11.70;53.70;;;;;;5366539;26;20081;-68
2024/04/20 00:20:37;;;;;;;502.00;82.30;;;11.60;53.70;;;;;;5370174;26;20016;-69
2024/04/20 00:23:10;;;;;;;509.17;89.63;;;11.60;53.70;;;;;;5374097;26;20007;-67
2024/04/20 00:25:42;;;;;;;629.50;121.90;;;11.60;53.80;;;;;;5358097;26;20039;-68
2024/04/20 00:28:12;;;;;;;468.67;75.53;;;11.50;53.80;;;;;;5379672;26;20354;-66
2024/04/20 00:30:43;;;;;;;514.45;86.88;;;11.50;53.80;;;;;;5345860;26;20012;-70
2024/04/20 00:33:14;;;;;;;489.00;79.35;;;11.50;53.80;;;;;;5347734;26;20004;-67
2024/04/20 00:35:44;;;;;;;646.22;126.68;;;11.50;53.80;;;;;;5343747;26;20040;-73
2024/04/20 00:38:18;;;;;;;469.30;75.97;;;11.50;53.90;;;;;;5348895;26;20027;-67
2024/04/20 00:40:55;;;;;;;534.38;98.88;;;11.50;53.80;;;;;;5345503;26;20000;-71
2024/04/20 00:43:26;;;;;;;563.15;115.00;;;11.50;53.80;;;;;;5374736;26;20101;-66
2024/04/20 00:45:59;;;;;;;680.47;143.95;;;11.50;53.80;;;;;;5335398;26;20031;-68
2024/04/20 00:48:31;;;;;;;484.83;79.13;;;11.50;53.80;;;;;;5349290;26;20019;-67
2024/04/20 00:51:01;;;;;;;481.85;79.63;;;11.40;53.80;;;;;;5348782;26;20389;-68
2024/04/20 00:53:37;;;;;;;485.15;79.15;;;11.40;53.80;;;;;;5347054;26;20125;-66
2024/04/20 00:56:09;;;;;;;492.98;80.80;;;11.40;53.80;;;;;;5352555;26;20074;-66
2024/04/20 00:58:39;;;;;;;490.65;80.88;;;11.40;53.80;;;;;;5367523;26;20081;-67
2024/04/20 01:01:11;;;;;;;469.77;74.97;;;11.40;53.80;;;;;;5357467;26;20023;-69
2024/04/20 01:03:42;;;;;;;531.90;89.28;;;11.40;53.80;;;;;;5345724;26;20022;-68
2024/04/20 01:06:13;;;;;;;495.48;81.75;;;11.30;53.80;;;;;;5341672;26;20004;-67
2024/04/20 01:08:46;;;;;;;482.08;77.97;;;11.40;53.80;;;;;;5350713;26;20078;-69
2024/04/20 01:11:17;;;;;;;560.20;100.97;;;11.30;53.80;;;;;;5344281;26;20036;-71
2024/04/20 01:13:55;;;;;;;481.85;77.75;;;11.30;53.90;;;;;;5343551;26;20036;-67
2024/04/20 01:16:26;;;;;;;604.22;115.40;;;11.30;53.90;;;;;;5357814;26;20560;-68
2024/04/20 01:18:57;;;;;;;483.35;79.85;;;11.30;53.90;;;;;;5378897;26;20482;-69
2024/04/20 01:21:28;;;;;;;537.83;95.20;;;11.30;53.90;;;;;;5372676;26;20011;-68
2024/04/20 01:24:06;;;;;;;666.72;147.30;;;11.20;53.90;;;;;;5358798;26;20003;-68
2024/04/20 01:26:39;;;;;;;478.85;76.22;;;11.20;54.00;;;;;;5359542;26;20698;-67
2024/04/20 01:29:10;;;;;;;483.02;77.93;;;11.20;54.00;;;;;;5358886;26;20011;-69
2024/04/20 01:31:40;;;;;;;485.20;77.97;;;11.20;54.00;;;;;;5399906;26;20004;-69
2024/04/20 01:34:11;;;;;;;688.85;155.10;;;11.20;53.90;;;;;;5362340;26;20004;-67
2024/04/20 01:36:41;;;;;;;505.92;83.60;;;11.20;53.90;;;;;;5378009;26;21974;-68
2024/04/20 01:39:12;;;;;;;636.17;128.15;;;11.30;53.90;;;;;;5358872;26;20084;-68
2024/04/20 01:41:45;;;;;;;506.05;82.25;;;11.30;53.90;;;;;;5359311;26;20118;-68
2024/04/20 01:44:16;;;;;;;528.10;101.57;;;11.30;53.90;;;;;;5362105;26;20948;-68
2024/04/20 01:46:46;;;;;;;484.92;78.03;;;11.30;53.80;;;;;;5374223;26;20011;-69
2024/04/20 01:49:17;;;;;;;476.65;75.72;;;11.30;53.80;;;;;;5368538;26;20377;-68
2024/04/20 01:51:47;;;;;;;492.75;79.28;;;11.30;53.80;;;;;;5371740;26;20070;-70
2024/04/20 01:54:18;;;;;;;658.13;130.05;;;11.30;53.80;;;;;;5367195;26;20004;-68
2024/04/20 01:56:51;;;;;;;487.02;78.13;;;11.30;53.80;;;;;;5369510;26;20003;-68
2024/04/20 01:59:22;;;;;;;491.15;83.63;;;11.30;53.80;;;;;;5368498;26;20018;-68
2024/04/20 02:01:57;;;;;;;541.22;96.97;;;11.30;53.70;;;;;;5364660;26;20457;-68
2024/04/20 02:04:28;;;;;;;501.08;89.20;;;11.20;53.70;;;;;;5349979;26;20751;-68
2024/04/20 02:06:58;;;;;;;499.30;87.80;;;11.20;53.80;;;;;;5375384;26;20014;-69
2024/04/20 02:09:29;;;;;;;478.52;84.68;;;11.10;53.80;;;;;;5370288;26;20784;-68
2024/04/20 02:12:02;;;;;;;507.92;86.60;;;11.20;53.90;;;;;;5365649;26;20010;-69
2024/04/20 02:14:33;;;;;;;682.30;155.13;;;11.20;54.60;;;;;;5340683;26;20011;-69
2024/04/20 02:17:03;;;;;;;482.75;80.82;;;11.20;53.80;;;;;;5371426;26;20012;-68
2024/04/20 02:19:34;;;;;;;487.42;82.65;;;11.20;54.50;;;;;;5366318;26;20000;-74
2024/04/20 02:22:04;;;;;;;472.70;80.70;;;11.30;53.90;;;;;;5367214;26;20004;-69
2024/04/20 02:24:35;;;;;;;565.03;106.38;;;11.30;53.80;;;;;;5364969;26;20007;-68
2024/04/20 02:27:09;;;;;;;522.72;90.28;;;11.30;54.00;;;;;;5368748;26;20048;-70
2024/04/20 02:29:39;;;;;;;492.48;89.45;;;11.30;53.70;;;;;;5367738;26;20424;-69
2024/04/20 02:32:10;;;;;;;476.23;82.00;;;11.30;53.70;;;;;;5366124;26;20015;-67
2024/04/20 02:34:41;;;;;;;593.30;114.22;;;11.30;53.80;;;;;;5358569;26;20116;-68
2024/04/20 02:37:13;;;;;;;470.25;84.47;;;11.30;53.70;;;;;;5369994;26;20009;-69
2024/04/20 02:39:44;;;;;;;494.30;85.50;;;11.40;53.70;;;;;;5372753;26;20076;-68
2024/04/20 02:42:17;;;;;;;494.38;80.45;;;11.40;53.70;;;;;;5396012;26;20019;-69
2024/04/20 02:44:48;;;;;;;479.35;82.10;;;11.40;53.70;;;;;;5366278;26;20004;-68
2024/04/20 02:47:19;;;;;;;558.40;100.82;;;11.40;54.40;;;;;;5366151;26;20008;-69
2024/04/20 02:49:52;;;;;;;483.42;80.75;;;11.40;53.70;;;;;;5363588;26;20008;-68
2024/04/20 02:52:22;;;;;;;467.10;76.15;;;11.40;53.70;;;;;;5359644;26;20012;-69
2024/04/20 02:54:53;;;;;;;499.95;84.05;;;11.40;53.60;;;;;;5347318;26;20004;-68
2024/04/20 02:57:27;;;;;;;539.85;106.55;;;11.30;54.20;;;;;;5343265;26;20035;-69
2024/04/20 02:59:57;;;;;;;495.80;87.10;;;11.30;53.70;;;;;;5331699;26;20004;-70
2024/04/20 03:02:28;;;;;;;503.42;86.90;;;11.30;53.70;;;;;;5340574;26;20016;-70
2024/04/20 03:04:59;;;;;;;490.83;80.72;;;11.40;54.40;;;;;;5342175;26;20138;-70
2024/04/20 03:07:30;;;;;;;685.25;156.00;;;11.30;53.60;;;;;;5337485;26;20023;-70
2024/04/20 03:10:13;;;;;;;501.33;86.60;;;11.30;53.60;;;;;;5346793;26;20001;-68
2024/04/20 03:12:46;;;;;;;500.83;89.38;;;11.30;53.60;;;;;;5342748;26;20044;-69
2024/04/20 03:15:17;;;;;;;474.50;79.40;;;11.30;53.60;;;;;;5342345;26;20866;-69
2024/04/20 03:17:48;;;;;;;486.05;86.03;;;11.30;53.50;;;;;;5332270;26;21692;-70
2024/04/20 03:20:19;;;;;;;473.83;79.82;;;11.30;53.60;;;;;;5343377;26;20024;-69
2024/04/20 03:22:49;;;;;;;491.80;84.70;;;11.30;53.40;;;;;;5346236;26;20081;-67
2024/04/20 03:25:20;;;;;;;468.08;80.88;;;11.30;53.40;;;;;;5329132;26;20022;-70
2024/04/20 03:27:54;;;;;;;567.38;119.32;;;11.30;53.40;;;;;;5308026;26;20097;-69
2024/04/20 03:30:24;;;;;;;498.40;100.93;;;11.20;53.40;;;;;;5309065;26;20005;-69
2024/04/20 03:32:55;;;;;;;508.05;85.55;;;11.20;53.40;;;;;;5311024;26;20475;-70
2024/04/20 03:35:26;;;;;;;504.10;85.15;;;11.30;53.60;;;;;;5311918;26;20479;-69
2024/04/20 03:37:56;;;;;;;474.98;77.68;;;11.20;53.30;;;;;;5305831;26;22289;-70
2024/04/20 03:40:28;;;;;;;492.95;81.97;;;11.20;53.30;;;;;;5309880;26;20052;-69
2024/04/20 03:43:01;;;;;;;502.20;85.10;;;11.20;53.40;;;;;;5305290;26;20859;-70
2024/04/20 03:45:33;;;;;;;569.88;105.43;;;11.20;53.30;;;;;;5305681;26;20009;-69
2024/04/20 03:48:04;;;;;;;504.27;82.00;;;11.30;53.20;;;;;;5305980;26;20900;-70
2024/04/20 03:50:35;;;;;;;497.20;80.55;;;11.20;53.10;;;;;;5309409;26;20013;-69
2024/04/20 03:53:05;;;;;;;672.97;146.05;;;11.20;53.10;;;;;;5299325;26;20379;-70
2024/04/20 03:55:36;;;;;;;515.85;85.47;;;11.20;53.10;;;;;;5311452;26;20013;-69
2024/04/20 03:58:09;;;;;;;470.77;75.90;;;11.20;53.10;;;;;;5307060;26;20009;-69
2024/04/20 04:00:39;;;;;;;535.10;89.60;;;11.20;53.20;;;;;;5302838;26;20005;-70
2024/04/20 04:03:14;;;;;;;695.25;148.70;;;11.20;53.50;;;;;;5296947;26;20039;-71
2024/04/20 04:05:45;;;;;;;508.45;82.70;;;11.20;53.10;;;;;;5312132;26;20522;-69
2024/04/20 04:08:16;;;;;;;496.42;79.70;;;11.20;53.10;;;;;;5310326;26;19997;-70
2024/04/20 04:10:47;;;;;;;508.58;84.00;;;11.20;53.10;;;;;;5308135;26;20015;-70
2024/04/20 04:13:21;;;;;;;514.40;85.05;;;11.20;53.10;;;;;;5313385;26;20020;-70
2024/04/20 04:15:51;;;;;;;605.10;116.93;;;11.20;53.10;;;;;;5310271;26;20005;-68
2024/04/20 04:18:23;;;;;;;516.17;86.47;;;11.20;53.00;;;;;;5310904;26;20027;-69
2024/04/20 04:20:53;;;;;;;486.05;78.63;;;11.20;53.00;;;;;;5311384;26;20005;-69
2024/04/20 04:23:24;;;;;;;523.33;87.53;;;11.30;53.10;;;;;;5313349;26;20027;-68
2024/04/20 04:25:58;;;;;;;499.30;82.45;;;11.30;53.00;;;;;;5346548;26;20097;-68
2024/04/20 04:28:32;;;;;;;625.22;125.25;;;11.30;53.00;;;;;;5337097;26;20049;-70
2024/04/20 04:31:02;;;;;;;526.65;89.38;;;11.40;53.00;;;;;;5351929;26;20005;-67
2024/04/20 04:33:33;;;;;;;488.38;79.75;;;11.40;52.90;;;;;;5376743;26;20102;-68
2024/04/20 04:36:05;;;;;;;529.65;90.82;;;11.40;52.80;;;;;;5372326;26;20821;-70
2024/04/20 04:38:35;;;;;;;467.50;74.65;;;11.50;53.50;;;;;;5368577;26;20014;-71
2024/04/20 04:41:06;;;;;;;689.08;153.98;;;11.40;52.80;;;;;;5327519;26;21792;-72
2024/04/20 04:43:39;;;;;;;469.17;75.65;;;11.40;52.70;;;;;;5374477;26;20018;-69
2024/04/20 04:46:10;;;;;;;530.83;88.88;;;11.30;52.70;;;;;;5368435;26;20031;-70
2024/04/20 04:48:41;;;;;;;488.48;78.88;;;11.30;52.70;;;;;;5364669;26;20008;-70
2024/04/20 04:51:11;;;;;;;485.77;79.35;;;11.30;52.70;;;;;;5370233;26;20030;-70
2024/04/20 04:53:42;;;;;;;514.45;85.35;;;11.30;52.70;;;;;;5367225;26;20551;-69
2024/04/20 04:56:12;;;;;;;471.45;75.25;;;11.30;52.70;;;;;;5366955;26;20019;-72
2024/04/20 04:58:46;;;;;;;533.05;88.88;;;11.20;52.70;;;;;;5354509;26;20105;-69
2024/04/20 05:01:16;;;;;;;506.25;82.43;;;11.20;52.70;;;;;;5351722;26;20019;-70
2024/04/20 05:03:47;;;;;;;533.33;92.68;;;11.20;52.60;;;;;;5339644;26;20019;-69
2024/04/20 05:06:18;;;;;;;685.70;147.60;;;11.20;52.70;;;;;;5332912;26;20270;-72
2024/04/20 05:08:48;;;;;;;506.73;82.63;;;11.20;52.70;;;;;;5344289;26;20012;-69
2024/04/20 05:11:19;;;;;;;460.27;72.68;;;11.20;52.70;;;;;;5351227;26;20016;-69
2024/04/20 05:13:52;;;;;;;498.95;81.07;;;11.20;52.70;;;;;;5364183;26;20085;-70
2024/04/20 05:16:22;;;;;;;493.08;80.45;;;11.20;52.70;;;;;;5375488;26;20044;-69
2024/04/20 05:18:54;;;;;;;667.33;140.40;;;11.20;52.70;;;;;;5357572;26;20004;-68
2024/04/20 05:21:25;;;;;;;680.42;146.63;;;11.10;52.70;;;;;;5342334;26;21057;-69
2024/04/20 05:23:56;;;;;;;486.30;78.10;;;11.10;52.70;;;;;;5396390;26;20023;-68
2024/04/20 05:26:28;;;;;;;487.35;79.28;;;11.10;52.80;;;;;;5370740;26;20012;-70
2024/04/20 05:29:01;;;;;;;503.02;82.68;;;11.10;52.80;;;;;;5366967;26;20026;-68
2024/04/20 05:31:32;;;;;;;487.52;79.10;;;11.10;52.70;;;;;;5362522;26;20031;-67
2024/04/20 05:34:03;;;;;;;491.88;92.50;;;11.20;52.80;;;;;;5370877;26;20412;-69
2024/04/20 05:36:34;;;;;;;480.63;77.60;;;11.20;53.30;;;;;;5364689;26;20035;-70
2024/04/20 05:39:04;;;;;;;575.80;107.05;;;11.30;52.80;;;;;;5360206;26;20018;-69
2024/04/20 05:41:36;;;;;;;473.25;76.07;;;11.30;52.60;;;;;;5363849;26;20007;-69
2024/04/20 05:44:09;;;;;;;508.60;83.30;;;11.30;52.60;;;;;;5371457;26;20000;-70
2024/04/20 05:46:40;;;;;;;583.03;107.10;;;11.30;52.60;;;;;;5364610;26;20122;-69
2024/04/20 05:49:10;;;;;;;507.60;82.50;;;11.30;52.60;;;;;;5360139;26;20005;-68
2024/04/20 05:51:41;;;;;;;494.20;85.50;;;11.30;52.60;;;;;;5341784;26;20044;-71
2024/04/20 05:54:11;;;;;;;521.67;87.18;;;11.40;52.70;;;;;;5359273;26;20004;-71
2024/04/20 05:56:42;;;;;;;521.05;87.90;;;11.40;52.60;;;;;;5366889;26;20008;-70
2024/04/20 05:59:15;;;;;;;504.20;82.10;;;11.50;52.60;;;;;;5361704;26;20376;-70
2024/04/20 06:01:46;;;;;;;668.40;133.00;;;11.50;52.60;;;;;;5352981;26;20093;-71
2024/04/20 06:04:16;;;;;;;508.77;89.47;;;11.50;53.20;;;;;;5330332;26;20854;-72
2024/04/20 06:06:47;;;;;;;543.53;99.47;;;11.50;52.60;;;;;;5341043;26;20015;-70
2024/04/20 06:09:18;;;;;;;517.00;89.78;;;11.60;52.70;;;;;;5339481;26;20008;-75
2024/04/20 06:11:48;;;;;;;703.42;166.40;;;11.60;52.60;;;;;;5338536;26;20004;-73
2024/04/20 06:14:22;;;;;;;514.25;90.32;;;11.70;52.70;;;;;;5344724;26;20533;-76
2024/04/20 06:16:53;;;;;;;485.55;84.18;;;11.70;53.30;;;;;;5340925;26;20000;-75
2024/04/20 06:19:24;;;;;;;525.53;96.00;;;11.90;52.70;;;;;;5341371;26;20012;-71
2024/04/20 06:21:54;;;;;;;699.35;167.65;;;11.90;52.60;;;;;;5336611;26;20008;-71
2024/04/20 06:24:25;;;;;;;536.15;95.85;;;12.00;53.30;;;;;;5342162;26;20085;-72
2024/04/20 06:26:56;;;;;;;512.75;91.45;;;12.00;52.60;;;;;;5342252;26;20008;-72
2024/04/20 06:29:29;;;;;;;515.60;91.13;;;12.10;52.60;;;;;;5338554;26;20508;-70
2024/04/20 06:32:00;;;;;;;642.45;146.40;;;12.20;52.70;;;;;;5337351;26;20359;-73
2024/04/20 06:34:31;;;;;;;522.85;92.43;;;12.30;53.20;;;;;;5337477;26;20847;-73
2024/04/20 06:37:02;;;;;;;483.48;83.50;;;12.30;52.50;;;;;;5378233;26;20096;-75
2024/04/20 06:39:35;;;;;;;516.92;90.38;;;12.30;52.40;;;;;;5368577;26;20396;-72
2024/04/20 06:42:07;;;;;;;477.38;81.18;;;12.40;52.40;;;;;;5365326;26;20007;-72
2024/04/20 06:44:40;;;;;;;511.13;89.57;;;12.50;52.50;;;;;;5367627;26;20311;-73
2024/04/20 06:47:11;;;;;;;485.40;82.63;;;12.70;52.50;;;;;;5346040;26;20855;-76
2024/04/20 06:49:42;;;;;;;495.45;86.78;;;12.80;52.50;;;;;;5340529;26;20016;-71
2024/04/20 06:52:13;;;;;;;503.17;89.50;;;13.00;52.30;;;;;;5342157;26;20597;-71
2024/04/20 06:54:44;;;;;;;528.55;94.32;;;13.10;52.10;;;;;;5344137;26;20158;-68
2024/04/20 06:57:15;;;;;;;518.65;92.22;;;13.10;52.00;;;;;;5338471;26;20146;-65
2024/04/20 06:59:48;;;;;;;586.95;119.07;;;13.20;52.10;;;;;;5336594;26;20139;-66
2024/04/20 07:02:19;;;;;;;540.95;99.20;;;13.40;52.20;;;;;;5346041;26;20027;-67
2024/04/20 07:04:52;;;;;;;568.30;106.18;;;13.50;52.00;;;;;;5354849;26;20092;-66
2024/04/20 07:07:23;;;;;;;503.02;88.82;;;13.60;52.00;;;;;;5369886;26;20448;-69
2024/04/20 07:09:53;;;;;;;671.25;165.43;;;13.80;51.90;;;;;;5338579;26;20004;-66
2024/04/20 07:12:24;;;;;;;541.58;104.70;;;13.80;51.60;;;;;;5356517;26;20023;-68
2024/04/20 07:15:10;;;;;;;478.70;84.07;;;13.70;51.30;;;;;;5355528;26;20564;-65
2024/04/20 07:17:44;;;;;;;526.63;137.40;;;13.50;51.40;;;;;;5350940;26;20434;-65
2024/04/20 07:20:15;;;;;;;534.03;101.07;;;13.40;51.70;;;;;;5344340;26;20004;-67
2024/04/20 07:22:45;;;;;;;494.55;101.57;;;13.40;51.90;;;;;;5344673;26;20012;-66
2024/04/20 07:25:16;;;;;;;548.97;101.78;;;13.40;51.90;;;;;;5346896;26;20028;-67
2024/04/20 07:27:47;;;;;;;521.97;130.43;;;13.60;52.20;;;;;;5346665;26;23358;-66
2024/04/20 07:30:21;;;;;;;527.70;96.20;;;13.80;52.20;;;;;;5348084;26;20419;-65
2024/04/20 07:32:51;;;;;;;478.95;82.72;;;14.20;52.10;;;;;;5348058;26;20004;-68
2024/04/20 07:35:22;;;;;;;530.35;102.38;;;14.50;51.80;;;;;;5339359;26;20004;-68
2024/04/20 07:37:53;;;;;;;689.80;164.20;;;14.70;51.50;;;;;;5337666;26;20009;-70
2024/04/20 07:40:25;;;;;;;509.55;96.07;;;15.10;51.60;;;;;;5365616;26;20703;-68
2024/04/20 07:42:56;;;;;;;506.05;95.43;;;15.60;51.40;;;;;;5347375;26;20005;-66
2024/04/20 07:45:29;;;;;;;526.30;108.75;;;16.10;51.20;;;;;;5337166;26;20078;-67
2024/04/20 07:48:00;;;;;;;670.42;166.60;;;16.70;50.70;;;;;;5329861;26;20414;-69
2024/04/20 07:50:31;;;;;;;516.85;104.20;;;17.00;50.20;;;;;;5344294;26;20009;-69
2024/04/20 07:53:04;;;;;;;515.70;109.75;;;17.10;49.80;;;;;;5352469;26;20004;-71
2024/04/20 07:55:35;;;;;;;534.53;105.13;;;17.60;50.30;;;;;;5350574;26;20190;-72
2024/04/20 07:58:05;;;;;;;660.22;164.35;;;18.40;50.50;;;;;;5355442;26;20966;-71
2024/04/20 08:00:39;;;;;;;555.33;117.70;;;19.40;50.10;;;;;;5347313;26;20009;-72
2024/04/20 08:03:10;;;;;;;493.13;112.43;;;20.40;49.60;;;;;;5344150;26;20044;-74
2024/04/20 08:05:41;;;;;;;510.67;109.00;;;21.50;49.00;;;;;;5358093;26;20012;-71
2024/04/20 08:08:11;;;;;;;572.05;132.95;;;22.60;48.20;;;;;;5341794;26;20027;-75
2024/04/20 08:10:42;;;;;;;550.17;127.40;;;23.90;47.40;;;;;;5330969;26;20081;-71
2024/04/20 08:13:13;;;;;;;526.70;126.13;;;24.70;45.90;;;;;;5374735;26;21556;-72
2024/04/20 08:15:47;;;;;;;539.33;131.93;;;25.00;45.20;;;;;;5351628;26;20085;-70
2024/04/20 08:18:21;;;;;;;535.20;153.23;;;25.00;44.50;;;;;;5342601;26;20005;-73
2024/04/20 08:20:53;;;;;;;541.45;125.50;;;24.30;43.60;;;;;;5342799;26;20700;-69
2024/04/20 08:23:24;;;;;;;524.28;125.35;;;23.30;43.80;;;;;;5353142;26;20753;-79
2024/04/20 08:25:55;;;;;;;657.15;160.25;;;22.50;44.70;;;;;;5330022;26;20073;-70
2024/04/20 08:28:29;;;;;;;534.80;121.70;;;21.90;45.20;;;;;;5339273;26;20514;-72
2024/04/20 08:31:02;;;;;;;633.47;138.98;;;21.20;45.50;;;;;;5325722;26;20016;-72
2024/04/20 08:33:33;;;;;;;551.58;132.10;;;20.50;45.60;;;;;;5334308;26;20023;-71
2024/04/20 08:36:07;;;;;;;756.38;189.80;;;20.00;46.30;;;;;;5364697;26;20018;-71
2024/04/20 08:38:38;;;;;;;518.85;120.68;;;19.60;46.80;;;;;;5369644;26;20011;-76
2024/04/20 08:41:15;;;;;;;510.60;114.68;;;19.30;47.00;;;;;;5375190;26;20019;-79
2024/04/20 08:43:50;;;;;;;514.90;112.57;;;19.10;47.20;;;;;;5378353;26;20059;-73
2024/04/20 08:46:24;;;;;;;548.50;133.65;;;18.80;47.10;;;;;;5372753;26;20011;-68
2024/04/20 08:48:56;;;;;;;533.42;109.03;;;18.40;47.20;;;;;;5351278;26;20355;-68
2024/04/20 08:51:28;;;;;;;660.83;150.63;;;18.10;47.30;;;;;;5367592;26;20007;-70
2024/04/20 08:54:02;;;;;;;513.88;108.43;;;17.70;47.50;;;;;;5377453;26;20000;-73
2024/04/20 08:56:39;;;;;;;523.42;120.40;;;17.40;47.60;;;;;;5343477;26;20012;-69
2024/04/20 08:59:09;;;;;;;532.92;106.47;;;17.00;47.90;;;;;;5364550;26;20068;-67
2024/04/20 09:01:44;;;;;;;509.52;101.40;;;16.70;48.00;;;;;;5375302;26;20011;-78
2024/04/20 09:04:17;;;;;;;496.93;100.17;;;16.50;48.30;;;;;;5366193;26;20000;-71
2024/04/20 09:06:51;;;;;;;547.67;109.60;;;16.50;48.60;;;;;;5364889;26;20231;-71
2024/04/20 09:09:23;;;;;;;521.38;106.10;;;16.50;48.60;;;;;;5360398;26;20806;-71
2024/04/20 09:11:54;;;;;;;522.80;105.72;;;16.40;48.50;;;;;;5362588;26;20777;-64
2024/04/20 09:14:37;;;;;;;725.75;178.98;;;16.50;48.70;;;;;;5359932;26;19995;-63
2024/04/20 09:17:11;;;;;;;608.35;134.90;;;16.60;48.80;;;;;;5357266;26;20364;-65
2024/04/20 09:19:41;;;;;;;536.45;108.60;;;16.60;48.60;;;;;;5355833;26;20015;-75
2024/04/20 09:22:14;;;;;;;502.63;100.10;;;16.70;48.50;;;;;;5343903;26;20832;-74
2024/04/20 09:24:46;;;;;;;641.17;144.65;;;16.80;48.60;;;;;;5339399;26;20016;-66
2024/04/20 09:27:17;;;;;;;531.13;115.47;;;16.90;48.40;;;;;;5364448;26;20015;-70
2024/04/20 09:29:50;;;;;;;552.85;120.65;;;16.60;48.10;;;;;;5344475;26;20078;-70
2024/04/20 09:32:34;;;;;;;588.90;138.38;;;16.20;48.40;;;;;;5325895;26;20319;-71
2024/04/20 09:35:07;;;;;;;;;;;16.10;49.30;;;;;;5334605;26;20023;-71
2024/04/20 09:37:40;;;;;;;544.72;114.80;;;16.30;49.90;;;;;;5334809;26;19925;-72
2024/04/20 09:40:13;;;;;;;560.67;135.13;;;16.50;50.10;;;;;;5369868;26;20060;-70
2024/04/20 09:42:45;;;;;;;531.47;108.75;;;16.70;49.90;;;;;;5372134;26;20019;-71
2024/04/20 09:45:24;;;;;;;724.30;196.15;;;16.80;49.40;;;;;;5357447;26;20072;-71
2024/04/20 09:47:59;;;;;;;537.00;111.78;;;16.90;49.30;;;;;;5359757;26;20016;-72
2024/04/20 09:50:31;;;;;;;552.53;114.03;;;17.00;49.10;;;;;;5330069;26;20016;-74
2024/04/20 09:53:09;;;;;;;569.20;135.98;;;17.10;48.90;;;;;;5360731;26;20061;-74
2024/04/20 09:55:48;;;;;;;704.53;186.02;;;17.30;48.90;;;;;;5333121;26;20004;-76
2024/04/20 09:58:25;;;;;;;502.67;119.43;;;17.60;48.80;;;;;;5357184;26;20012;-76
2024/04/20 10:00:56;;;;;;;603.25;146.80;;;17.70;48.30;;;;;;5354614;26;20048;-73
2024/04/20 10:03:32;;;;;;;515.00;121.57;;;17.70;48.00;;;;;;5354960;26;20044;-73
2024/04/20 10:06:04;;;;;;;580.83;156.80;;;17.80;48.00;;;;;;5358668;26;20381;-73
2024/04/20 10:08:38;;;;;;;549.35;139.15;;;19.10;49.60;;;;;;5363703;26;20633;-73
2024/04/20 10:11:12;;;;;;;531.30;137.73;;;19.70;47.60;;;;;;5372762;26;20021;-72
2024/04/20 10:13:49;;;;;;;525.35;119.28;;;19.60;46.40;;;;;;5367194;26;20054;-80
2024/04/20 10:16:23;;;;;;;524.10;118.63;;;19.20;46.20;;;;;;5386101;26;20039;-74
2024/04/20 10:19:17;;;;;;;515.45;115.47;;;18.70;46.30;;;;;;5363888;26;20045;-75
2024/04/20 10:21:49;;;;;;;509.40;104.75;;;17.90;46.40;;;;;;5369421;26;20004;-77
2024/04/20 10:24:21;;;;;;;517.15;108.88;;;17.20;46.80;;;;;;5341461;26;20004;-73
2024/04/20 10:26:56;;;;;;;546.22;135.00;;;16.40;47.20;;;;;;5393142;26;20085;-74
2024/04/20 10:29:31;;;;;;;558.35;111.70;;;15.80;47.80;;;;;;5360474;26;20023;-73
2024/04/20 10:32:02;;;;;;;577.58;119.07;;;15.40;48.60;;;;;;5360870;26;20506;-73
2024/04/20 10:34:40;;;;;;;540.05;109.75;;;15.10;49.20;;;;;;5342137;26;20014;-73
2024/04/20 10:37:11;;;;;;;534.70;108.45;;;15.30;50.00;;;;;;5348966;26;20082;-72
2024/04/20 10:39:42;;;;;;;544.15;120.15;;;15.70;50.30;;;;;;5355662;26;20059;-75
2024/04/20 10:42:13;;;;;;;517.10;114.10;;;16.80;51.20;;;;;;5352687;26;20353;-76
2024/04/20 10:44:46;;;;;;;547.70;126.65;;;19.70;51.00;;;;;;5348459;26;20013;-74
2024/04/20 10:47:24;;;;;;;702.70;194.50;;;22.80;48.00;;;;;;5327769;26;20009;-73
2024/04/20 10:50:02;;;;;;;580.67;140.65;;;24.90;43.90;;;;;;5332558;26;20009;-76
2024/04/20 10:52:33;;;;;;;612.00;150.88;;;24.60;41.60;;;;;;5361907;26;20008;-75
2024/04/20 10:55:12;;;;;;;575.38;128.98;;;23.20;41.40;;;;;;5339451;26;20013;-76
2024/04/20 10:57:44;;;;;;;550.00;122.75;;;21.50;42.30;;;;;;5335809;26;20535;-75
2024/04/20 11:00:21;;;;;;;520.53;109.68;;;19.80;44.50;;;;;;5342092;26;20024;-73
2024/04/20 11:02:53;;;;;;;528.97;109.55;;;18.50;45.20;;;;;;5337396;26;20008;-73
2024/04/20 11:05:27;;;;;;;553.65;113.07;;;17.50;46.40;;;;;;5344035;26;20000;-74
2024/04/20 11:08:04;;;;;;;597.08;126.75;;;16.80;47.20;;;;;;5335955;26;20016;-77
2024/04/20 11:10:35;;;;;;;518.88;107.15;;;16.30;47.70;;;;;;5371872;26;20039;-73
2024/04/20 11:13:08;;;;;;;512.13;100.53;;;15.90;48.10;;;;;;5338872;26;20012;-75
2024/04/20 11:15:43;;;;;;;536.97;108.57;;;15.50;48.80;;;;;;5342962;26;20009;-72
2024/04/20 11:18:16;;;;;;;624.85;134.88;;;15.10;48.30;;;;;;5340642;26;20030;-71
2024/04/20 11:20:50;;;;;;;555.65;110.45;;;14.80;48.60;;;;;;5367949;26;20044;-69
2024/04/20 11:23:23;;;;;;;503.88;96.35;;;14.50;48.70;;;;;;5343627;26;20427;-71
2024/04/20 11:25:55;;;;;;;521.67;124.03;;;14.10;48.90;;;;;;5368774;26;20091;-71
2024/04/20 11:28:28;;;;;;;531.45;101.22;;;13.80;49.10;;;;;;5347063;26;20009;-75
2024/04/20 11:31:00;;;;;;;713.03;178.30;;;13.60;49.60;;;;;;5341215;26;20008;-77
2024/04/20 11:33:31;;;;;;;545.25;107.18;;;13.60;50.00;;;;;;5369041;26;20011;-74
2024/04/20 11:36:07;;;;;;;528.88;102.88;;;13.70;50.10;;;;;;5361556;26;20089;-77
2024/04/20 11:38:40;;;;;;;526.00;102.53;;;13.70;50.10;;;;;;5360013;26;20008;-71
2024/04/20 11:41:11;;;;;;;712.90;190.65;;;13.90;50.20;;;;;;5363489;26;20509;-71
2024/04/20 11:43:45;;;;;;;537.80;107.40;;;14.10;50.30;;;;;;5346173;26;20029;-72
2024/04/20 11:46:16;;;;;;;513.75;113.03;;;14.50;50.10;;;;;;5346618;26;20027;-71
2024/04/20 11:48:47;;;;;;;574.50;125.07;;;14.60;49.60;;;;;;5351071;26;20032;-73
2024/04/20 11:54:22;;;;;;;730.05;185.65;;;14.40;49.70;;;;;;5349827;26;20984;-79
2024/04/20 11:56:55;;;;;;;573.10;116.70;;;14.50;50.30;;;;;;5370810;26;20020;-75
2024/04/20 11:59:27;;;;;;;504.35;98.65;;;14.60;50.30;;;;;;5354766;26;20015;-77
2024/04/20 12:02:00;;;;;;;543.50;105.15;;;14.50;50.10;;;;;;5343806;26;21653;-77
2024/04/20 12:04:39;;;;;;;523.65;105.45;;;14.40;50.00;;;;;;5357886;26;20327;-76
2024/04/20 12:07:14;;;;;;;525.50;108.63;;;14.10;49.70;;;;;;5380030;26;20073;-79
2024/04/20 12:09:58;;;;;;;502.95;94.00;;;13.60;49.30;;;;;;5354432;26;20795;-77
2024/04/20 12:12:31;;;;;;;495.95;91.85;;;13.20;50.40;;;;;;5357717;26;20008;-80
2024/04/20 12:15:07;;;;;;;546.17;114.18;;;13.00;51.60;;;;;;5353779;26;20008;-83
2024/04/20 12:17:41;;;;;;;628.65;134.95;;;12.80;52.30;;;;;;5347015;26;21323;-78
2024/04/20 12:20:15;;;;;;;505.35;93.72;;;12.80;52.80;;;;;;5349251;26;20000;-83
2024/04/20 12:22:54;;;;;;;526.58;98.72;;;12.70;52.90;;;;;;5357676;26;20044;-76
2024/04/20 12:25:26;;;;;;;492.13;91.33;;;12.60;53.10;;;;;;5354054;26;20533;-77
2024/04/20 12:28:01;;;;;;;484.70;89.47;;;12.70;53.40;;;;;;5351427;26;20238;-81
2024/04/20 12:30:40;;;;;;;553.28;112.80;;;12.80;53.70;;;;;;5349621;26;20017;-79
2024/04/20 12:33:18;;;;;;;502.38;97.25;;;13.00;53.80;;;;;;5351253;26;20943;-82
2024/04/20 12:35:53;;;;;;;608.45;128.05;;;13.30;54.00;;;;;;5339293;26;20058;-76
2024/04/20 12:38:47;;;;;;;506.67;93.53;;;13.60;54.00;;;;;;5347291;26;20008;-74
2024/04/20 12:41:35;;;;;;;534.38;103.85;;;14.10;54.00;;;;;;5337432;26;20004;-72